createdAt,value
2022-09-05T00:02:00.188Z,24.04
2022-09-05T00:06:52.965Z,24.02
2022-09-05T00:11:45.633Z,24.02
2022-09-05T00:16:38.176Z,23.99
2022-09-05T00:23:17.623Z,23.99
2022-09-05T00:26:23.140Z,23.99
2022-09-05T00:31:51.279Z,23.95
2022-09-05T00:36:08.506Z,23.95
2022-09-05T00:41:01.347Z,23.92
2022-09-05T00:45:54.032Z,23.95
2022-09-05T00:50:46.682Z,23.91
2022-09-05T00:55:39.421Z,23.89
2022-09-05T01:00:32.141Z,23.89
2022-09-05T01:05:25.060Z,23.86
2022-09-05T01:10:17.600Z,23.86
2022-09-05T01:15:10.207Z,23.86
2022-09-05T01:20:04.578Z,23.83
2022-09-05T01:24:55.309Z,23.82
2022-09-05T01:29:48.109Z,23.82
2022-09-05T01:34:40.926Z,23.82
2022-09-05T01:40:12.611Z,23.77
2022-09-05T01:44:26.379Z,23.79
2022-09-05T01:49:18.971Z,23.76
2022-09-05T01:54:19.874Z,23.75
2022-09-05T01:59:04.153Z,23.75
2022-09-05T02:03:56.741Z,23.76
2022-09-05T02:08:49.375Z,23.7
2022-09-05T02:13:42.027Z,23.7
2022-09-05T02:18:34.496Z,23.7
2022-09-05T02:23:40.290Z,23.67
2022-09-05T02:28:19.714Z,23.65
2022-09-05T02:33:12.260Z,23.65
2022-09-05T02:39:07.566Z,23.64
2022-09-05T02:45:05.484Z,23.62
2022-09-05T02:47:50.165Z,23.64
2022-09-05T02:57:31.873Z,23.63
2022-09-05T02:58:05.161Z,23.61
2022-09-05T03:02:28.029Z,23.59
2022-09-05T03:07:20.434Z,23.6
2022-09-05T03:12:29.037Z,23.56
2022-09-05T03:17:05.847Z,23.57
2022-09-05T03:26:50.926Z,23.55
2022-09-05T03:31:43.408Z,23.54
2022-09-05T03:36:35.925Z,23.52
2022-09-05T03:41:33.946Z,23.51
2022-09-05T03:46:21.445Z,23.49
2022-09-05T03:53:35.579Z,23.53
2022-09-05T03:57:10.028Z,23.51
2022-09-05T04:01:00.995Z,23.48
2022-09-05T04:06:01.008Z,23.47
2022-09-05T04:10:44.107Z,23.47
2022-09-05T04:15:36.714Z,23.47
2022-09-05T04:20:29.429Z,23.47
2022-09-05T04:25:22.303Z,23.49
2022-09-05T04:30:27.646Z,23.44
2022-09-05T04:35:07.258Z,23.43
2022-09-05T04:39:59.971Z,23.42
2022-09-05T04:44:55.782Z,23
2022-09-05T04:49:44.395Z,22.93
2022-09-05T04:54:36.734Z,22.55
2022-09-05T04:59:55.321Z,22.3
2022-09-05T05:06:07.735Z,22.22
2022-09-05T05:09:13.636Z,21.99
2022-09-05T05:16:54.358Z,21.74
2022-09-05T05:19:05.023Z,21.85
2022-09-05T05:23:51.929Z,21.97
2022-09-05T05:28:39.746Z,22.2
2022-09-05T05:33:32.234Z,21.91
2022-09-05T05:38:26.102Z,22.17
2022-09-05T05:43:17.969Z,21.59
2022-09-05T05:48:05.514Z,21.54
2022-09-05T05:52:58.319Z,21.62
2022-09-05T05:57:51.921Z,21.95
2022-09-05T06:02:45.222Z,22.21
2022-09-05T06:07:48.290Z,22.29
2022-09-05T06:14:53.655Z,22.35
2022-09-05T06:17:23.939Z,22.38
2022-09-05T06:22:19.310Z,22.41
2022-09-05T06:27:09.027Z,22.45
2022-09-05T06:32:01.551Z,22.48
2022-09-05T06:36:54.201Z,22.52
2022-09-05T06:41:46.801Z,22.54
2022-09-05T06:46:52.902Z,22.56
2022-09-05T06:51:32.146Z,22.6
2022-09-05T06:56:25.657Z,22.63
2022-09-05T07:01:17.750Z,22.64
2022-09-05T07:06:19.258Z,22.67
2022-09-05T07:11:11.593Z,22.69
2022-09-05T07:15:55.692Z,22.7
2022-09-05T07:21:13.545Z,22.71
2022-09-05T07:25:41.647Z,22.69
2022-09-05T07:30:34.208Z,22.7
2022-09-05T07:35:27.104Z,22.73
2022-09-05T07:40:25.515Z,22.75
2022-09-05T07:45:12.623Z,22.77
2022-09-05T07:50:36.489Z,22.8
2022-09-05T07:56:57.989Z,22.84
2022-09-05T07:59:50.674Z,22.85
2022-09-05T08:04:43.374Z,22.88
2022-09-05T08:10:07.283Z,22.9
2022-09-05T08:14:43.304Z,22.92
2022-09-05T08:19:21.368Z,22.95
2022-09-05T08:24:14.498Z,22.97
2022-09-05T08:29:06.802Z,23
2022-09-05T08:33:59.461Z,23.02
2022-09-05T08:38:52.367Z,23.04
2022-09-05T08:45:46.387Z,23.08
2022-09-05T08:48:37.764Z,23.11
2022-09-05T08:53:43.158Z,23.14
2022-09-05T08:58:23.082Z,23.19
2022-09-05T09:03:16.139Z,23.23
2022-09-05T09:08:08.721Z,23.26
2022-09-05T09:13:01.386Z,23.3
2022-09-05T09:17:54.044Z,23.34
2022-09-05T09:22:46.805Z,23.38
2022-09-05T09:28:05.957Z,23.43
2022-09-05T09:32:32.276Z,23.46
2022-09-05T09:37:25.499Z,23.51
2022-09-05T09:42:32.334Z,23.53
2022-09-05T09:47:10.346Z,23.55
2022-09-05T09:52:03.068Z,23.57
2022-09-05T10:01:48.294Z,23.63
2022-09-05T10:10:37.700Z,23.67
2022-09-05T10:11:54.033Z,23.69
2022-09-05T10:16:26.767Z,23.72
2022-09-05T10:21:19.418Z,23.75
2022-09-05T10:26:12.050Z,23.77
2022-09-05T10:32:12.170Z,23.8
2022-09-05T10:35:57.563Z,23.82
2022-09-05T10:41:14.624Z,23.84
2022-09-05T10:45:43.108Z,23.87
2022-09-05T10:50:35.942Z,23.93
2022-09-05T10:55:28.748Z,23.98
2022-09-05T11:02:19.737Z,24.06
2022-09-05T11:10:07.018Z,24.13
2022-09-05T11:19:52.439Z,24.19
2022-09-05T11:29:37.861Z,24.26
2022-09-05T11:36:06.976Z,24.32
2022-09-05T11:40:11.701Z,24.36
2022-09-05T11:44:25.357Z,24.39
2022-09-05T11:49:08.835Z,24.43
2022-09-05T11:54:01.756Z,24.44
2022-09-05T11:58:54.475Z,24.48
2022-09-05T12:03:57.850Z,24.54
2022-09-05T12:08:41.451Z,24.56
2022-09-05T12:13:34.211Z,24.59
2022-09-05T12:18:27.211Z,24.6
2022-09-05T12:23:31.250Z,24.65
2022-09-05T12:28:26.246Z,24.69
2022-09-05T12:33:58.285Z,24.72
2022-09-05T12:39:16.222Z,24.74
2022-09-05T12:42:54.891Z,24.74
2022-09-05T12:47:43.691Z,24.76
2022-09-05T12:52:36.374Z,24.79
2022-09-05T12:58:35.999Z,24.8
2022-09-05T13:03:10.122Z,24.82
2022-09-05T13:07:14.460Z,24.83
2022-09-05T13:14:51.952Z,24.85
2022-09-05T13:16:59.742Z,24.86
2022-09-05T13:21:52.339Z,24.83
2022-09-05T13:26:44.993Z,24.86
2022-09-05T13:35:12.357Z,24.87
2022-09-05T13:37:57.302Z,24.88
2022-09-05T13:41:26.697Z,24.89
2022-09-05T13:46:15.915Z,24.98
2022-09-05T13:51:08.782Z,25.03
2022-09-05T13:56:03.114Z,25.06
2022-09-05T14:00:54.314Z,25.09
2022-09-05T14:05:47.211Z,25.12
2022-09-05T14:10:39.971Z,25.15
2022-09-05T14:15:32.896Z,25.15
2022-09-05T14:20:25.527Z,25.14
2022-09-05T14:25:18.158Z,25.18
2022-09-05T14:30:19.749Z,25.21
2022-09-05T14:37:37.609Z,25.21
2022-09-05T14:39:56.530Z,25.23
2022-09-05T14:44:49.461Z,25.27
2022-09-05T14:49:42.289Z,25.3
2022-09-05T15:02:40.191Z,25.36
2022-09-05T15:04:36.514Z,25.36
2022-09-05T15:11:25.247Z,25.4
2022-09-05T15:14:06.156Z,25.43
2022-09-05T15:18:58.865Z,25.44
2022-09-05T15:23:51.395Z,25.47
2022-09-05T15:28:44.177Z,25.49
2022-09-05T15:33:36.892Z,25.51
2022-09-05T15:38:29.556Z,25.54
2022-09-05T15:43:22.247Z,25.57
2022-09-05T15:48:15.301Z,25.55
2022-09-05T15:53:07.400Z,25.56
2022-09-05T15:58:00.190Z,25.59
2022-09-05T16:03:01.010Z,25.62
2022-09-05T16:10:33.370Z,25.63
2022-09-05T16:12:37.959Z,25.64
2022-09-05T16:21:03.929Z,25.65
2022-09-05T16:27:15.795Z,25.67
2022-09-05T16:32:08.571Z,25.68
2022-09-05T16:37:08.701Z,25.69
2022-09-05T16:41:54.291Z,25.71
2022-09-05T16:46:47.132Z,25.69
2022-09-05T16:51:39.802Z,25.72
2022-09-05T16:56:32.564Z,25.69
2022-09-05T17:01:25.522Z,25.71
2022-09-05T17:06:17.958Z,25.69
2022-09-05T17:11:12.323Z,25.71
2022-09-05T17:16:03.610Z,25.69
2022-09-05T17:20:56.320Z,25.7
2022-09-05T17:29:21.926Z,25.7
2022-09-05T17:31:41.029Z,25.72
2022-09-05T17:35:34.391Z,25.7
2022-09-05T17:40:26.946Z,25.69
2022-09-05T17:45:19.651Z,25.68
2022-09-05T17:50:12.581Z,25.68
2022-09-05T17:55:05.539Z,25.69
2022-09-05T17:59:57.750Z,25.68
2022-09-05T18:04:50.357Z,25.67
2022-09-05T18:09:48.134Z,25.67
2022-09-05T18:14:37.305Z,25.66
2022-09-05T18:19:33.730Z,25.65
2022-09-05T18:24:21.283Z,25.66
2022-09-05T18:29:14.567Z,25.66
2022-09-05T18:34:06.794Z,25.66
2022-09-05T18:38:59.342Z,25.64
2022-09-05T18:43:54.655Z,25.65
2022-09-05T18:48:44.971Z,25.64
2022-09-05T18:53:37.813Z,25.65
2022-09-05T18:58:30.642Z,25.63
2022-09-05T19:03:25.067Z,25.63
2022-09-05T19:08:26.911Z,25.63
2022-09-05T19:13:10.395Z,25.61
2022-09-05T19:18:03.667Z,25.59
2022-09-05T19:23:09.554Z,25.58
2022-09-05T19:29:39.082Z,25.57
2022-09-05T19:37:01.798Z,25.58
2022-09-05T19:37:38.518Z,25.55
2022-09-05T19:44:59.256Z,25.54
2022-09-05T19:47:45.818Z,25.55
2022-09-05T19:52:11.808Z,25.54
2022-09-05T19:56:58.526Z,25.52
2022-09-05T20:01:52.220Z,25.49
2022-09-05T20:06:45.974Z,25.48
2022-09-05T20:11:46.072Z,25.45
2022-09-05T20:16:31.958Z,25.47
2022-09-05T20:21:26.445Z,25.45
2022-09-05T20:26:18.987Z,25.42
2022-09-05T20:31:11.688Z,25.38
2022-09-05T20:38:26.331Z,25.38
2022-09-05T20:43:13.512Z,25.38
2022-09-05T20:54:12.012Z,25.31
2022-09-05T20:55:39.351Z,25.32
2022-09-05T21:00:24.581Z,25.3
2022-09-05T21:05:20.518Z,25.32
2022-09-05T21:10:10.019Z,25.3
2022-09-05T21:15:02.741Z,25.28
2022-09-05T21:19:55.464Z,25.26
2022-09-05T21:29:35.999Z,25.26
2022-09-05T21:34:29.856Z,25.25
2022-09-05T21:39:22.478Z,25.21
2022-09-05T21:47:12.929Z,25.22
2022-09-05T21:49:07.832Z,25.17
2022-09-05T21:55:06.481Z,25.19
2022-09-05T21:59:22.950Z,25.21
2022-09-05T22:03:45.941Z,25.18
2022-09-05T22:13:31.363Z,25.14
2022-09-05T22:18:24.102Z,25.17
2022-09-05T22:23:17.101Z,25.15
2022-09-05T22:28:09.711Z,25.09
2022-09-05T22:33:02.509Z,25.1
2022-09-05T22:37:59.471Z,25.12
2022-09-05T22:42:47.868Z,25.07
2022-09-05T22:47:40.610Z,25.11
2022-09-05T22:52:33.394Z,25.07
2022-09-05T22:57:25.839Z,25.05
2022-09-05T23:02:18.434Z,25.06
2022-09-05T23:07:11.086Z,25.01
2022-09-05T23:12:03.732Z,25.05
2022-09-05T23:16:56.418Z,25.02
2022-09-05T23:21:49.349Z,25.04
2022-09-05T23:26:42.214Z,24.99
2022-09-05T23:31:34.981Z,25
2022-09-05T23:36:27.585Z,24.96
2022-09-05T23:41:20.376Z,24.98
2022-09-05T23:46:13.244Z,24.96
2022-09-05T23:51:06.084Z,25
2022-09-05T23:55:58.656Z,25
